createdAt,value
2019-06-15T00:08:55.090Z,99.90
2019-06-15T00:11:24.663Z,99.90
2019-06-15T00:13:54.430Z,99.90
2019-06-15T00:26:20.987Z,99.90
2019-06-15T00:28:50.518Z,99.90
2019-06-15T00:31:19.895Z,99.90
2019-06-15T00:33:49.374Z,99.90
2019-06-15T00:41:20.185Z,99.90
2019-06-15T00:46:18.855Z,99.90
2019-06-15T00:51:17.504Z,99.90
2019-06-15T00:56:16.450Z,99.90
2019-06-15T00:58:45.911Z,99.90
2019-06-15T01:01:15.484Z,99.90
2019-06-15T01:03:45.300Z,99.90
2019-06-15T01:06:14.749Z,99.90
2019-06-15T01:08:44.320Z,99.90
2019-06-15T01:18:41.439Z,99.90
2019-06-15T01:21:11.792Z,99.90
2019-06-15T01:23:41.482Z,99.90
2019-06-15T01:26:11.858Z,99.90
2019-06-15T01:28:41.342Z,99.90
2019-06-15T01:31:12.563Z,99.90
2019-06-15T01:38:40.758Z,99.90
2019-06-15T01:41:10.396Z,99.90
2019-06-15T01:43:40.451Z,99.90
2019-06-15T01:48:39.181Z,99.90
2019-06-15T01:53:37.820Z,99.90
2019-06-15T01:56:07.433Z,99.90
2019-06-15T02:03:35.155Z,99.90
2019-06-15T02:06:04.685Z,99.90
2019-06-15T02:11:03.081Z,99.90
2019-06-15T02:23:30.055Z,99.90
2019-06-15T02:25:59.628Z,99.90
2019-06-15T02:35:56.452Z,99.90
2019-06-15T02:38:25.959Z,99.90
2019-06-15T02:40:55.526Z,99.90
2019-06-15T02:48:24.763Z,99.90
2019-06-15T02:53:23.578Z,99.90
2019-06-15T02:55:53.142Z,99.90
2019-06-15T03:06:06.133Z,99.90
2019-06-15T03:11:05.287Z,99.90
2019-06-15T03:18:33.646Z,99.90
2019-06-15T03:23:33.251Z,99.90
2019-06-15T03:26:05.738Z,99.90
2019-06-15T03:31:03.131Z,99.90
2019-06-15T03:33:32.945Z,99.90
2019-06-15T03:41:00.997Z,99.90
2019-06-15T03:45:59.923Z,99.90
2019-06-15T03:48:29.709Z,99.90
2019-06-15T03:50:59.239Z,99.90
2019-06-15T03:55:57.695Z,99.90
2019-06-15T03:58:27.131Z,99.90
2019-06-15T04:01:14.910Z,99.90
2019-06-15T04:03:44.585Z,99.90
2019-06-15T04:06:14.187Z,99.90
2019-06-15T04:08:43.697Z,99.90
2019-06-15T04:11:14.156Z,99.90
2019-06-15T04:18:41.689Z,99.90
2019-06-15T04:21:12.171Z,99.90
2019-06-15T04:33:38.726Z,99.90
2019-06-15T04:36:09.050Z,99.90
2019-06-15T04:38:38.664Z,99.90
2019-06-15T04:41:08.110Z,99.90
2019-06-15T04:43:39.292Z,99.90
2019-06-15T04:46:08.665Z,99.90
2019-06-15T04:48:38.228Z,99.90
2019-06-15T05:06:03.702Z,99.90
2019-06-15T05:08:33.336Z,99.90
2019-06-15T05:13:33.244Z,99.90
2019-06-15T05:18:32.736Z,99.90
2019-06-15T05:21:02.178Z,99.90
2019-06-15T05:26:01.034Z,99.90
2019-06-15T05:28:30.787Z,99.90
2019-06-15T05:31:00.222Z,99.90
2019-06-15T05:38:28.224Z,99.90
2019-06-15T05:40:57.771Z,99.90
2019-06-15T05:45:56.564Z,99.90
2019-06-15T05:48:26.036Z,99.90
2019-06-15T05:50:58.529Z,99.90
2019-06-15T05:53:26.918Z,99.90
2019-06-15T05:55:56.378Z,99.90
2019-06-15T05:58:25.983Z,99.90
2019-06-15T06:03:24.783Z,99.90
2019-06-15T06:15:50.970Z,99.90
2019-06-15T06:18:20.452Z,99.90
2019-06-15T06:20:50.035Z,99.90
2019-06-15T06:25:48.733Z,99.90
2019-06-15T06:30:47.647Z,99.90
2019-06-15T06:33:17.063Z,99.90
2019-06-15T06:35:46.509Z,99.90
2019-06-15T06:38:16.204Z,99.90
2019-06-15T06:40:45.786Z,99.90
2019-06-15T06:43:15.310Z,99.90
2019-06-15T06:45:45.211Z,99.90
2019-06-15T06:48:15.014Z,99.90
2019-06-15T06:50:44.930Z,99.90
2019-06-15T06:55:43.837Z,99.90
2019-06-15T06:58:13.584Z,99.90
2019-06-15T07:00:43.109Z,99.90
2019-06-15T07:03:13.234Z,99.90
2019-06-15T07:08:12.879Z,99.90
2019-06-15T07:10:42.318Z,99.90
2019-06-15T07:13:12.936Z,99.90
2019-06-15T07:15:42.378Z,99.90
2019-06-15T07:18:12.936Z,99.90
2019-06-15T07:20:42.397Z,99.90
2019-06-15T07:23:13.155Z,99.90
2019-06-15T07:25:43.006Z,99.90
2019-06-15T07:28:13.185Z,99.90
2019-06-15T07:30:42.647Z,99.90
2019-06-15T07:33:13.587Z,99.90
2019-06-15T07:35:43.215Z,99.80
2019-06-15T07:38:13.231Z,99.40
2019-06-15T07:45:41.927Z,99.30
2019-06-15T07:48:11.359Z,99.60
2019-06-15T07:58:23.711Z,98.60
2019-06-15T08:03:09.111Z,98.40
2019-06-15T08:05:38.611Z,98.80
2019-06-15T08:08:08.123Z,98.30
2019-06-15T08:10:38.105Z,98.20
2019-06-15T08:13:07.646Z,98.50
2019-06-15T08:15:37.364Z,98.40
2019-06-15T08:18:09.707Z,98.80
2019-06-15T08:20:38.450Z,99.50
2019-06-15T08:23:08.064Z,98.80
2019-06-15T08:25:37.596Z,96.70
2019-06-15T08:28:07.630Z,96.80
2019-06-15T08:30:43.739Z,96.40
2019-06-15T08:33:13.415Z,96.70
2019-06-15T08:38:13.192Z,97.70
2019-06-15T08:40:42.707Z,98.00
2019-06-15T08:43:13.554Z,98.30
2019-06-15T08:45:43.347Z,96.40
2019-06-15T08:48:13.315Z,95.30
2019-06-15T08:53:12.992Z,96.40
2019-06-15T08:55:42.459Z,96.30
2019-06-15T08:58:13.293Z,95.40
2019-06-15T09:05:42.382Z,94.70
2019-06-15T09:08:12.669Z,95.70
2019-06-15T09:10:42.303Z,95.10
2019-06-15T09:13:13.701Z,96.80
2019-06-15T09:15:46.811Z,96.90
2019-06-15T09:18:16.411Z,96.90
2019-06-15T09:20:46.289Z,97.20
2019-06-15T09:23:16.163Z,97.30
2019-06-15T09:25:45.559Z,97.30
2019-06-15T09:28:15.276Z,96.60
2019-06-15T09:33:14.350Z,97.00
2019-06-15T09:35:44.150Z,97.20
2019-06-15T09:38:13.585Z,95.40
2019-06-15T09:40:43.224Z,95.40
2019-06-15T09:43:13.375Z,92.50
2019-06-15T09:45:43.380Z,92.50
2019-06-15T09:48:13.438Z,92.90
2019-06-15T09:50:43.171Z,92.50
2019-06-15T09:53:13.419Z,93.10
2019-06-15T09:55:43.497Z,93.40
2019-06-15T09:58:13.747Z,90.60
2019-06-15T10:00:43.539Z,90.70
2019-06-15T10:03:13.489Z,90.50
2019-06-15T10:05:43.289Z,90.80
2019-06-15T10:08:13.499Z,90.50
2019-06-15T10:10:43.295Z,89.20
2019-06-15T10:13:13.446Z,89.80
2019-06-15T10:15:43.476Z,90.30
2019-06-15T10:18:13.465Z,90.50
2019-06-15T10:20:43.675Z,90.60
2019-06-15T10:23:13.734Z,90.70
2019-06-15T10:25:43.305Z,91.20
2019-06-15T10:28:13.548Z,91.10
2019-06-15T10:30:43.274Z,90.20
2019-06-15T10:33:13.532Z,90.80
2019-06-15T10:35:43.221Z,90.80
2019-06-15T10:38:13.600Z,91.10
2019-06-15T10:40:43.396Z,90.70
2019-06-15T10:45:42.564Z,86.10
2019-06-15T10:48:13.742Z,87.90
2019-06-15T10:50:43.478Z,87.00
2019-06-15T10:53:13.612Z,87.50
2019-06-15T10:55:43.566Z,88.60
2019-06-15T10:58:13.795Z,87.00
2019-06-15T11:01:02.984Z,87.90
2019-06-15T11:06:01.932Z,87.90
2019-06-15T11:08:31.379Z,87.50
2019-06-15T11:11:10.062Z,86.50
2019-06-15T11:13:39.803Z,87.20
2019-06-15T11:16:09.689Z,88.00
2019-06-15T11:18:39.726Z,86.70
2019-06-15T11:21:09.607Z,84.80
2019-06-15T11:26:08.567Z,85.20
2019-06-15T11:31:07.683Z,81.90
2019-06-15T11:36:06.759Z,84.30
2019-06-15T11:41:05.951Z,85.00
2019-06-15T11:43:35.687Z,86.00
2019-06-15T11:46:05.655Z,84.20
2019-06-15T11:58:32.495Z,82.20
2019-06-15T12:01:02.495Z,82.80
2019-06-15T12:03:32.445Z,80.70
2019-06-15T12:06:02.444Z,80.10
2019-06-15T12:11:01.405Z,79.20
2019-06-15T12:16:01.069Z,80.40
2019-06-15T12:20:59.859Z,80.70
2019-06-15T12:25:58.784Z,80.80
2019-06-15T12:28:28.601Z,79.90
2019-06-15T12:30:58.598Z,79.50
2019-06-15T12:33:28.362Z,80.20
2019-06-15T12:35:57.874Z,81.30
2019-06-15T12:38:27.563Z,82.30
2019-06-15T12:40:57.173Z,82.70
2019-06-15T12:43:26.964Z,84.40
2019-06-15T12:45:57.889Z,85.30
2019-06-15T12:48:27.782Z,86.30
2019-06-15T12:50:57.714Z,85.90
2019-06-15T12:53:27.770Z,85.60
2019-06-15T12:55:57.550Z,88.00
2019-06-15T13:01:02.785Z,86.00
2019-06-15T13:05:56.763Z,86.70
2019-06-15T13:08:26.677Z,93.90
2019-06-15T13:23:22.710Z,84.40
2019-06-15T13:25:52.732Z,82.80
2019-06-15T13:30:51.590Z,81.90
2019-06-15T13:38:19.671Z,82.20
2019-06-15T14:00:42.711Z,88.30
2019-06-15T14:03:12.990Z,89.00
2019-06-15T14:05:42.806Z,89.80
2019-06-15T14:08:13.939Z,89.50
2019-06-15T14:10:44.098Z,87.30
2019-06-15T14:13:13.877Z,86.00
2019-06-15T14:15:43.737Z,84.60
2019-06-15T14:18:14.002Z,84.10
2019-06-15T14:20:43.720Z,81.40
2019-06-15T14:23:13.786Z,77.80
2019-06-15T14:25:43.530Z,75.40
2019-06-15T14:28:13.989Z,75.40
2019-06-15T14:30:43.855Z,76.10
2019-06-15T14:33:13.780Z,76.20
2019-06-15T14:35:44.197Z,75.50
2019-06-15T14:38:14.039Z,76.30
2019-06-15T14:40:43.753Z,76.40
2019-06-15T14:43:13.775Z,77.40
2019-06-15T14:45:55.789Z,77.90
2019-06-15T14:48:14.935Z,78.70
2019-06-15T14:50:44.784Z,79.80
2019-06-15T14:53:14.187Z,81.10
2019-06-15T14:55:45.844Z,81.80
2019-06-15T14:58:17.101Z,84.20
2019-06-15T15:00:46.696Z,84.50
2019-06-15T15:03:17.147Z,85.00
2019-06-15T15:05:46.863Z,84.50
2019-06-15T15:08:16.445Z,86.00
2019-06-15T15:10:45.920Z,86.60
2019-06-15T15:13:15.644Z,85.40
2019-06-15T15:15:46.842Z,88.50
2019-06-15T15:18:16.618Z,87.80
2019-06-15T15:20:48.421Z,88.30
2019-06-15T15:25:50.376Z,91.00
2019-06-15T15:28:19.881Z,91.50
2019-06-15T15:33:18.920Z,91.00
2019-06-15T15:45:46.035Z,91.60
2019-06-15T16:25:48.535Z,92.50
2019-06-15T16:28:19.850Z,92.90
2019-06-15T16:31:05.217Z,92.20
2019-06-15T17:45:46.732Z,96.90
2019-06-15T18:50:46.815Z,99.90
2019-06-15T18:53:16.356Z,99.90
2019-06-15T18:58:17.868Z,99.90
2019-06-15T19:00:47.362Z,99.90
2019-06-15T19:15:46.669Z,99.90
2019-06-15T19:18:17.746Z,99.90
2019-06-15T19:23:16.626Z,99.90
2019-06-15T19:33:16.923Z,99.90
2019-06-15T19:35:46.690Z,99.90
2019-06-15T19:38:16.502Z,99.90
2019-06-15T19:40:46.260Z,99.90
2019-06-15T19:43:16.450Z,99.90
2019-06-15T19:45:46.154Z,99.90
2019-06-15T19:48:17.054Z,99.90
2019-06-15T19:50:47.075Z,99.90
2019-06-15T19:53:17.187Z,99.90
2019-06-15T19:55:47.126Z,99.90
2019-06-15T19:58:16.789Z,99.90
2019-06-15T20:00:46.799Z,99.90
2019-06-15T20:03:16.974Z,99.90
2019-06-15T20:05:46.587Z,99.90
2019-06-15T20:08:17.622Z,99.90
2019-06-15T20:10:47.668Z,99.90
2019-06-15T20:13:17.252Z,99.90
2019-06-15T20:15:47.185Z,99.90
2019-06-15T20:18:17.667Z,99.90
2019-06-15T20:20:47.521Z,99.90
2019-06-15T20:23:17.313Z,99.90
2019-06-15T20:25:47.160Z,99.90
2019-06-15T20:28:17.296Z,99.90
2019-06-15T20:30:47.649Z,99.90
2019-06-15T20:33:17.319Z,99.90
2019-06-15T20:35:47.417Z,99.90
2019-06-15T20:38:17.438Z,99.90
2019-06-15T20:45:47.663Z,99.90
2019-06-15T20:48:17.286Z,99.90
2019-06-15T20:50:47.329Z,99.90
2019-06-15T20:53:17.270Z,99.90
2019-06-15T20:55:47.106Z,99.90
2019-06-15T20:58:17.186Z,99.90
2019-06-15T21:00:47.792Z,99.90
2019-06-15T21:03:17.509Z,99.90
2019-06-15T21:05:47.860Z,99.90
2019-06-15T21:08:17.404Z,99.90
2019-06-15T21:10:47.179Z,99.90
2019-06-15T21:13:17.090Z,99.90
2019-06-15T21:15:47.563Z,99.90
2019-06-15T21:18:17.341Z,99.90
2019-06-15T21:20:47.339Z,99.90
2019-06-15T21:23:18.251Z,99.90
2019-06-15T21:25:47.820Z,99.90
2019-06-15T21:28:17.314Z,99.90
2019-06-15T21:30:47.419Z,99.90
2019-06-15T21:33:17.307Z,99.90
2019-06-15T21:35:52.357Z,99.90
2019-06-15T21:38:18.318Z,99.90
2019-06-15T21:40:47.861Z,99.90
2019-06-15T21:43:16.644Z,99.90
2019-06-15T21:48:16.413Z,99.90
2019-06-15T21:50:47.301Z,99.90
2019-06-15T21:53:17.396Z,99.90
2019-06-15T21:55:47.453Z,99.90
2019-06-15T23:05:57.156Z,99.90
2019-06-15T23:08:26.919Z,99.90
2019-06-15T23:15:56.503Z,99.90
2019-06-15T23:18:26.408Z,99.90
2019-06-15T23:20:56.927Z,99.90
2019-06-15T23:25:56.596Z,99.90
2019-06-15T23:28:27.120Z,99.90
2019-06-15T23:30:56.807Z,99.90
2019-06-15T23:33:26.722Z,99.90
2019-06-15T23:36:06.201Z,99.90
